Time;durP1;ratioP1;P1;durP2;ratioP2;P2;SDS_P1;SDS_P2;PMS_P1;PMS_P2;Temp;Humidity;BMP_temperature;BMP_pressure;BME280_temperature;BME280_humidity;BME280_pressure;Samples;Min_cycle;Max_cycle;Signal;HPM_P1;HPM_P2
2023/01/31 00:00:43;;;;;;;;;1.00;1.00;;;;;19.49;55.98;99657.98;111475;1270;20727;-70
2023/01/31 00:03:23;;;;;;;;;1.00;1.00;;;;;19.49;55.81;99658.42;111497;1270;19497;-70
2023/01/31 00:05:50;;;;;;;;;1.00;1.00;;;;;19.50;55.98;99664.41;111296;1270;20218;-70
2023/01/31 00:08:18;;;;;;;;;1.00;1.00;;;;;19.51;55.80;99667.10;111518;1270;20882;-71
2023/01/31 00:10:45;;;;;;;;;1.00;1.00;;;;;19.50;55.84;99667.13;111356;1255;19614;-71
2023/01/31 00:13:13;;;;;;;;;1.00;1.00;;;;;19.51;55.90;99672.14;111534;1270;18564;-70
2023/01/31 00:15:40;;;;;;;;;1.00;1.00;;;;;19.51;55.94;99672.46;111388;1263;19350;-70
2023/01/31 00:18:08;;;;;;;;;1.00;1.00;;;;;19.48;56.00;99672.98;111541;1270;19843;-71
2023/01/31 00:20:35;;;;;;;;;1.00;1.00;;;;;19.49;55.89;99674.20;111326;1270;19960;-70
2023/01/31 00:23:03;;;;;;;;;1.00;1.00;;;;;19.49;55.79;99685.19;111544;1270;19349;-70
2023/01/31 00:25:30;;;;;;;;;1.00;1.00;;;;;19.48;55.70;99683.64;111298;1270;18154;-70
2023/01/31 00:27:58;;;;;;;;;3.00;1.00;;;;;19.48;55.83;99687.77;111548;1256;19929;-71
2023/01/31 00:30:25;;;;;;;;;1.00;1.00;;;;;19.49;55.71;99683.73;111356;1262;19263;-70
2023/01/31 00:32:53;;;;;;;;;1.00;1.00;;;;;19.48;55.95;99686.85;111553;1270;19572;-71
2023/01/31 00:35:20;;;;;;;;;1.00;1.00;;;;;19.50;55.79;99694.18;111290;1270;19954;-70
2023/01/31 00:37:48;;;;;;;;;1.00;1.00;;;;;19.50;55.90;99694.52;111567;1270;19521;-71
2023/01/31 00:40:15;;;;;;;;;1.00;1.00;;;;;19.49;55.60;99696.98;111300;1262;18778;-70
2023/01/31 00:42:43;;;;;;;;;1.00;1.00;;;;;19.49;55.87;99704.08;111453;1270;18817;-70
2023/01/31 00:45:10;;;;;;;;;1.00;1.00;;;;;19.49;55.83;99706.02;111307;1257;21017;-70
2023/01/31 00:47:38;;;;;;;;;1.00;1.00;;;;;19.50;55.97;99715.00;111603;1270;18755;-71
2023/01/31 00:50:05;;;;;;;;;1.00;1.00;;;;;19.49;55.76;99713.23;111287;1270;20116;-70
2023/01/31 00:52:32;;;;;;;;;1.00;1.00;;;;;19.50;55.67;99723.66;111601;1256;21078;-71
2023/01/31 00:55:00;;;;;;;;;1.00;1.00;;;;;19.49;55.65;99725.57;111266;1270;20929;-70
2023/01/31 00:57:27;;;;;;;;;1.00;1.00;;;;;19.50;55.76;99731.65;111389;1270;18497;-70
2023/01/31 00:59:55;;;;;;;;;1.00;1.00;;;;;19.49;55.57;99731.38;111237;1270;19395;-69
2023/01/31 01:02:22;;;;;;;;;1.00;1.00;;;;;19.49;55.82;99737.57;111248;1255;19899;-70
2023/01/31 01:04:50;;;;;;;;;1.00;1.00;;;;;19.48;55.68;99739.15;111255;1270;20406;-70
2023/01/31 01:07:17;;;;;;;;;1.00;1.00;;;;;19.48;55.65;99743.26;111193;1257;20996;-70
2023/01/31 01:09:45;;;;;;;;;2.00;1.00;;;;;19.48;55.54;99743.63;111279;1270;19046;-69
2023/01/31 01:12:12;;;;;;;;;1.00;1.00;;;;;19.48;55.60;99743.96;111094;1256;20288;-70
2023/01/31 01:14:39;;;;;;;;;1.00;1.00;;;;;19.48;55.59;99748.65;111290;1270;19364;-70
2023/01/31 01:17:07;;;;;;;;;1.00;1.00;;;;;19.49;55.59;99753.66;111079;1255;19648;-70
2023/01/31 01:19:34;;;;;;;;;1.00;1.00;;;;;19.49;55.76;99753.84;111335;1270;18755;-70
2023/01/31 01:22:03;;;;;;;;;1.00;1.00;;;;;19.49;55.65;99759.69;111094;1270;19449;-69
2023/01/31 01:24:31;;;;;;;;;1.00;1.00;;;;;19.47;55.78;99763.48;111271;1270;19492;-70
2023/01/31 01:26:58;;;;;;;;;1.00;1.00;;;;;19.48;55.68;99770.89;111503;1257;20195;-70
2023/01/31 01:29:26;;;;;;;;;1.00;1.00;;;;;19.47;55.54;99772.46;111286;1270;19344;-71
2023/01/31 01:31:53;;;;;;;;;1.00;1.00;;;;;19.46;55.54;99779.27;111516;1270;18551;-70
2023/01/31 01:34:20;;;;;;;;;1.00;1.00;;;;;19.47;55.59;99782.89;111245;1270;21259;-70
2023/01/31 01:36:48;;;;;;;;;1.00;1.00;;;;;19.47;55.67;99785.64;111542;1270;20710;-71
2023/01/31 01:39:16;;;;;;;;;1.00;1.00;;;;;19.47;55.69;99792.46;111328;1270;18749;-71
2023/01/31 01:41:43;;;;;;;;;1.00;1.00;;;;;19.46;55.54;99795.88;111540;1255;18594;-71
2023/01/31 01:44:11;;;;;;;;;1.00;1.00;;;;;19.46;55.68;99796.97;111284;1270;19282;-70
2023/01/31 01:46:38;;;;;;;;;1.00;1.00;;;;;19.46;55.57;99793.20;111511;1255;19473;-70
2023/01/31 01:49:06;;;;;;;;;1.00;1.00;;;;;19.47;55.62;99797.23;111281;1270;19947;-71
2023/01/31 01:51:33;;;;;;;;;1.00;1.00;;;;;19.47;55.47;99801.95;111531;1270;21140;-71
2023/01/31 01:54:00;;;;;;;;;1.00;1.00;;;;;19.45;55.40;99800.85;111313;1263;19813;-70
2023/01/31 01:56:28;;;;;;;;;1.00;1.00;;;;;19.46;55.39;99804.79;111494;1270;19949;-71
2023/01/31 01:58:55;;;;;;;;;1.00;1.00;;;;;19.47;55.57;99810.77;111323;1270;19690;-71
2023/01/31 02:01:23;;;;;;;;;1.00;1.00;;;;;19.46;55.55;99810.02;111510;1270;20820;-71
2023/01/31 02:03:50;;;;;;;;;1.00;1.00;;;;;19.46;55.53;99816.58;111313;1263;18611;-69
2023/01/31 02:06:18;;;;;;;;;1.00;1.00;;;;;19.45;55.56;99819.36;111546;1270;21042;-71
2023/01/31 02:08:45;;;;;;;;;1.00;1.00;;;;;19.46;55.41;99825.80;111315;1262;19747;-70
2023/01/31 02:11:13;;;;;;;;;1.00;1.00;;;;;19.45;55.37;99821.95;111569;1270;19882;-71
2023/01/31 02:13:40;;;;;;;;;1.00;1.00;;;;;19.44;55.40;99828.03;111308;1270;19334;-70
2023/01/31 02:16:08;;;;;;;;;1.00;1.00;;;;;19.44;55.48;99832.02;111585;1270;20639;-70
2023/01/31 02:18:35;;;;;;;;;1.00;1.00;;;;;19.43;55.34;99837.42;111285;1263;18715;-70
2023/01/31 02:21:02;;;;;;;;;1.00;1.00;;;;;19.45;55.37;99844.53;111491;1262;19445;-70
2023/01/31 02:23:30;;;;;;;;;2.00;2.00;;;;;19.44;55.31;99844.01;111258;1270;19824;-69
2023/01/31 02:25:57;;;;;;;;;1.00;1.00;;;;;19.44;55.38;99851.11;111273;1270;20153;-70
2023/01/31 02:28:25;;;;;;;;;1.00;1.00;;;;;19.44;55.42;99859.00;111286;1255;20729;-69
2023/01/31 02:30:52;;;;;;;;;1.00;1.00;;;;;19.44;55.63;99860.44;111245;1255;18916;-70
2023/01/31 02:33:20;;;;;;;;;1.00;1.00;;;;;19.44;55.39;99861.95;111309;1270;19891;-70
2023/01/31 02:35:47;;;;;;;;;1.00;1.00;;;;;19.44;55.54;99866.38;111062;1270;20754;-70
2023/01/31 02:38:14;;;;;;;;;1.00;1.00;;;;;19.44;55.33;99867.91;111332;1270;18162;-70
2023/01/31 02:40:42;;;;;;;;;1.00;1.00;;;;;19.44;55.41;99872.56;111139;1270;19940;-70
2023/01/31 02:43:09;;;;;;;;;1.00;1.00;;;;;19.45;55.23;99876.80;111316;1270;19526;-70
2023/01/31 02:45:37;;;;;;;;;;;;;;;19.45;55.51;99885.74;111093;1257;18466;-70
2023/01/31 02:48:06;;;;;;;;;1.00;1.00;;;;;19.44;55.46;99886.70;111363;1270;20626;-70
2023/01/31 02:50:34;;;;;;;;;1.00;1.00;;;;;19.45;55.42;99889.69;111454;1270;20656;-71
2023/01/31 02:53:01;;;;;;;;;1.00;1.00;;;;;19.44;55.46;99890.74;111224;1270;18536;-69
2023/01/31 02:58:14;;;;;;;;;1.00;1.00;;;;;19.44;55.33;99892.13;111427;1270;20739;-71
2023/01/31 03:00:41;;;;;;;;;1.00;1.00;;;;;19.44;55.38;99896.31;111229;1256;18193;-71
2023/01/31 03:03:09;;;;;;;;;1.00;1.00;;;;;19.43;55.17;99898.92;111480;1270;18605;-70
2023/01/31 03:05:36;;;;;;;;;1.00;1.00;;;;;19.42;55.14;99901.84;111252;1255;20845;-70
2023/01/31 03:08:04;;;;;;;;;1.00;1.00;;;;;19.42;55.14;99902.92;111480;1270;18712;-70
2023/01/31 03:10:31;;;;;;;;;1.00;1.00;;;;;19.41;55.20;99907.64;111222;1270;18640;-70
2023/01/31 03:12:59;;;;;;;;;1.00;1.00;;;;;19.40;55.34;99909.52;111398;1270;20734;-70
2023/01/31 03:17:30;;;;;;;;;1.00;1.00;;;;;19.42;55.46;99916.39;111186;1270;18128;-70
2023/01/31 03:18:14;;;;;;;;;1.00;1.00;;;;;19.42;55.23;99923.66;111426;1256;18611;-70
2023/01/31 03:20:43;;;;;;;;;1.00;1.00;;;;;19.40;55.24;99930.47;111153;1270;20707;-70
2023/01/31 03:23:10;;;;;;;;;1.00;1.00;;;;;19.40;55.03;99934.89;111245;1270;19509;-70
2023/01/31 03:25:37;;;;;;;;;1.00;1.00;;;;;19.40;55.31;99942.46;111541;1270;19829;-70
2023/01/31 03:28:05;;;;;;;;;1.00;1.00;;;;;19.40;55.21;99943.96;111243;1270;20701;-70
2023/01/31 03:30:33;;;;;;;;;1.00;1.00;;;;;19.40;55.46;99947.02;111614;1255;18249;-70
2023/01/31 03:33:00;;;;;;;;;1.00;1.00;;;;;19.41;55.26;99949.62;111336;1270;18968;-70
2023/01/31 03:35:28;;;;;;;;;1.00;1.00;;;;;19.40;55.36;99953.74;111519;1270;21469;-71
2023/01/31 03:37:55;;;;;;;;;1.00;1.00;;;;;19.39;55.29;99954.73;111258;1263;19556;-70
2023/01/31 03:40:23;;;;;;;;;1.00;1.00;;;;;19.40;55.13;99960.81;111580;1270;19950;-71
2023/01/31 03:42:50;;;;;;;;;1.00;1.00;;;;;19.40;55.28;99963.91;111282;1270;22289;-70
2023/01/31 03:45:18;;;;;;;;;1.00;1.00;;;;;19.40;55.16;99969.34;111589;1270;18175;-71
2023/01/31 03:47:45;;;;;;;;;1.00;1.00;;;;;19.39;55.27;99973.18;111260;1262;18790;-70
2023/01/31 03:50:13;;;;;;;;;1.00;1.00;;;;;19.39;55.30;99977.42;111574;1270;19393;-71
2023/01/31 03:52:40;;;;;;;;;1.00;1.00;;;;;19.40;55.29;99983.46;111250;1270;18169;-69
2023/01/31 03:55:08;;;;;;;;;1.00;1.00;;;;;19.40;55.20;99988.35;111496;1270;18650;-70
2023/01/31 03:57:35;;;;;;;;;1.00;1.00;;;;;19.39;55.15;99992.27;111291;1263;19367;-70
2023/01/31 04:00:03;;;;;;;;;1.00;1.00;;;;;19.40;55.16;99997.89;111504;1270;18124;-69
2023/01/31 04:02:30;;;;;;;;;1.00;1.00;;;;;19.39;55.26;99997.69;111283;1270;18933;-70
2023/01/31 04:04:58;;;;;;;;;1.00;1.00;;;;;19.39;55.28;99997.09;111557;1263;19461;-71
2023/01/31 04:07:25;;;;;;;;;1.00;1.00;;;;;19.39;54.92;100004.39;111296;1270;18209;-69
2023/01/31 04:09:53;;;;;;;;;1.00;1.00;;;;;19.40;55.20;100011.11;111580;1270;18628;-71
2023/01/31 04:12:20;;;;;;;;;1.00;1.00;;;;;19.39;55.18;100010.70;111252;1270;20971;-69
2023/01/31 04:14:48;;;;;;;;;1.00;1.00;;;;;19.40;55.23;100015.36;111559;1270;18228;-70
2023/01/31 04:17:15;;;;;;;;;1.00;1.00;;;;;19.41;55.15;100010.20;111272;1270;20266;-70
2023/01/31 04:19:42;;;;;;;;;1.00;1.00;;;;;19.39;55.03;100008.77;111577;1255;21661;-69
2023/01/31 04:22:10;;;;;;;;;1.00;1.00;;;;;19.38;55.17;100010.17;111232;1270;18410;-70
2023/01/31 04:24:37;;;;;;;;;1.00;1.00;;;;;19.38;55.09;100015.16;111364;1270;19976;-70
2023/01/31 04:27:05;;;;;;;;;1.00;1.00;;;;;19.39;55.03;100019.27;111283;1256;21101;-70
2023/01/31 04:29:32;;;;;;;;;1.00;1.00;;;;;19.38;54.98;100023.52;111333;1270;18761;-71
2023/01/31 04:32:00;;;;;;;;;1.00;1.00;;;;;19.37;55.14;100029.95;111282;1270;19990;-70
2023/01/31 04:34:27;;;;;;;;;1.00;1.00;;;;;19.37;54.93;100032.70;111232;1255;19590;-69
2023/01/31 04:36:55;;;;;;;;;1.00;1.00;;;;;19.39;55.01;100040.61;111321;1270;19796;-70
2023/01/31 04:39:22;;;;;;;;;3.00;1.00;;;;;19.38;55.01;100043.42;111032;1270;20122;-70
2023/01/31 04:41:49;;;;;;;;;1.00;1.00;;;;;19.37;54.87;100047.54;111293;1270;21952;-70
2023/01/31 04:44:17;;;;;;;;;1.00;1.00;;;;;19.37;55.06;100050.09;111099;1270;18221;-70
2023/01/31 04:46:45;;;;;;;;;1.00;1.00;;;;;19.36;55.07;100051.46;111286;1270;20114;-70
2023/01/31 04:49:13;;;;;;;;;1.00;1.00;;;;;19.37;55.05;100059.58;111570;1270;20668;-70
2023/01/31 04:51:40;;;;;;;;;1.00;1.00;;;;;19.37;55.03;100065.73;111259;1254;19989;-69
2023/01/31 04:54:08;;;;;;;;;1.00;1.00;;;;;19.37;55.12;100065.23;111567;1270;19886;-71
2023/01/31 04:56:35;;;;;;;;;1.00;1.00;;;;;19.38;55.12;100067.23;111257;1255;19346;-70
2023/01/31 04:59:02;;;;;;;;;1.00;1.00;;;;;19.37;55.21;100070.16;111515;1270;21295;-69
2023/01/31 05:01:30;;;;;;;;;1.00;1.00;;;;;19.37;55.09;100077.09;111214;1255;19940;-69
2023/01/31 05:03:57;;;;;;;;;3.00;1.00;;;;;19.37;55.06;100082.36;111367;1257;21797;-70
2023/01/31 05:06:25;;;;;;;;;1.00;1.00;;;;;19.37;55.02;100085.00;111262;1263;19468;-70
2023/01/31 05:08:53;;;;;;;;;1.00;1.00;;;;;19.37;54.89;100085.48;111277;1270;18614;-70
2023/01/31 05:11:20;;;;;;;;;1.00;1.00;;;;;19.36;54.95;100087.70;111307;1270;19302;-70
2023/01/31 05:13:48;;;;;;;;;1.00;1.00;;;;;19.35;55.17;100092.17;111543;1270;19541;-70
2023/01/31 05:16:15;;;;;;;;;3.00;1.00;;;;;19.36;54.90;100100.99;111342;1262;18816;-70
2023/01/31 05:18:43;;;;;;;;;1.00;1.00;;;;;19.35;54.93;100104.88;111552;1257;21314;-70
2023/01/31 05:21:10;;;;;;;;;1.00;1.00;;;;;19.36;54.86;100106.94;111299;1256;19883;-70
2023/01/31 05:23:38;;;;;;;;;1.00;1.00;;;;;19.36;55.03;100109.99;111559;1270;19963;-71
2023/01/31 05:26:05;;;;;;;;;1.00;1.00;;;;;19.35;54.84;100110.17;111310;1263;19640;-70
2023/01/31 05:28:33;;;;;;;;;3.00;3.00;;;;;19.35;55.18;100113.23;111574;1256;18134;-70
2023/01/31 05:31:00;;;;;;;;;1.00;1.00;;;;;19.35;55.09;100124.14;111281;1270;18647;-70
2023/01/31 05:33:30;;;;;;;;;1.00;1.00;;;;;19.35;54.83;100125.15;111567;1270;19776;-72
2023/01/31 05:35:57;;;;;;;;;1.00;1.00;;;;;19.35;55.05;100125.15;111443;1270;19265;-70
2023/01/31 05:38:25;;;;;;;;;1.00;1.00;;;;;19.35;55.05;100131.84;111214;1270;19923;-70
2023/01/31 05:40:52;;;;;;;;;1.00;1.00;;;;;19.36;54.89;100138.70;111448;1270;19525;-70
2023/01/31 05:43:20;;;;;;;;;1.00;1.00;;;;;19.35;55.09;100137.69;111267;1255;18818;-69
2023/01/31 05:45:47;;;;;;;;;1.00;1.00;;;;;19.35;54.84;100140.16;111348;1270;18948;-70
2023/01/31 05:48:15;;;;;;;;;1.00;1.00;;;;;19.35;54.84;100138.36;111289;1256;20730;-70
2023/01/31 05:50:42;;;;;;;;;1.00;1.00;;;;;19.35;54.87;100136.64;110916;1256;20123;-70
2023/01/31 05:53:10;;;;;;;;;1.00;1.00;;;;;19.34;54.82;100139.06;111270;1270;20210;-70
2023/01/31 05:55:37;;;;;;;;;1.00;1.00;;;;;19.33;54.99;100141.34;111080;1270;19324;-70
2023/01/31 05:58:04;;;;;;;;;3.00;3.00;;;;;19.34;54.92;100147.08;111334;1270;18413;-70
2023/01/31 06:00:32;;;;;;;;;1.00;1.00;;;;;19.35;54.88;100150.56;111156;1256;19102;-70
2023/01/31 06:02:59;;;;;;;;;1.00;1.00;;;;;19.35;54.87;100151.48;111311;1270;20716;-70
2023/01/31 06:05:27;;;;;;;;;1.00;1.00;;;;;19.34;54.65;100148.70;111119;1263;18644;-70
2023/01/31 06:07:54;;;;;;;;;1.00;1.00;;;;;19.34;54.74;100150.80;111354;1270;21270;-70
2023/01/31 06:10:22;;;;;;;;;3.00;1.00;;;;;19.35;54.94;100151.68;111117;1270;19548;-70
2023/01/31 06:12:49;;;;;;;;;1.00;1.00;;;;;19.35;55.05;100145.50;111361;1270;18195;-70
2023/01/31 06:15:17;;;;;;;;;1.00;1.00;;;;;19.35;54.72;100151.64;111253;1270;18849;-71
2023/01/31 06:17:44;;;;;;;;;1.00;1.00;;;;;19.34;54.68;100147.34;111407;1270;19388;-71
2023/01/31 06:20:11;;;;;;;;;1.00;1.00;;;;;19.35;54.65;100155.58;111231;1255;19598;-70
2023/01/31 06:22:39;;;;;;;;;1.00;1.00;;;;;19.34;54.76;100152.43;111386;1270;20256;-71
2023/01/31 06:25:06;;;;;;;;;1.00;1.00;;;;;19.34;54.91;100156.98;111172;1270;19341;-71
2023/01/31 06:27:34;;;;;;;;;1.00;1.00;;;;;19.35;54.61;100162.65;111388;1270;20023;-70
2023/01/31 06:30:01;;;;;;;;;1.00;1.00;;;;;19.37;54.62;100170.00;111197;1270;18612;-71
2023/01/31 06:32:29;;;;;;;;;1.00;1.00;;;;;19.42;54.75;100176.90;111446;1270;20792;-71
2023/01/31 06:34:56;;;;;;;;;1.00;1.00;;;;;19.42;54.97;100178.73;111236;1270;19771;-71
2023/01/31 06:37:24;;;;;;;;;1.00;1.00;;;;;19.40;55.06;100184.48;111443;1270;19927;-70
2023/01/31 06:39:51;;;;;;;;;1.00;1.00;;;;;19.38;55.29;100192.04;111300;1255;20500;-71
2023/01/31 06:42:19;;;;;;;;;1.00;1.00;;;;;19.36;55.24;100194.39;111446;1270;18169;-74
2023/01/31 06:44:46;;;;;;;;;1.00;1.00;;;;;19.38;55.24;100206.37;111273;1263;18790;-72
2023/01/31 06:47:13;;;;;;;;;1.00;1.00;;;;;19.38;55.26;100216.48;111488;1270;21988;-70
2023/01/31 06:49:41;;;;;;;;;1.00;1.00;;;;;19.36;55.32;100216.55;111279;1257;19998;-71
2023/01/31 06:52:08;;;;;;;;;1.00;1.00;;;;;19.33;55.06;100223.77;111462;1270;18566;-71
2023/01/31 06:54:36;;;;;;;;;3.00;1.00;;;;;19.33;54.75;100231.61;111254;1255;19560;-71
2023/01/31 06:57:03;;;;;;;;;1.00;1.00;;;;;19.33;54.60;100240.77;111469;1263;18443;-71
2023/01/31 06:59:31;;;;;;;;;1.00;1.00;;;;;19.34;54.83;100248.46;111330;1270;18666;-71
2023/01/31 07:01:58;;;;;;;;;1.00;1.00;;;;;19.35;54.68;100260.65;111527;1270;19614;-72
2023/01/31 07:04:26;;;;;;;;;1.00;1.00;;;;;19.35;54.63;100260.14;111229;1270;19633;-71
2023/01/31 07:06:54;;;;;;;;;1.00;1.00;;;;;19.38;54.88;100266.66;111451;1263;18506;-72
2023/01/31 07:09:22;;;;;;;;;1.00;1.00;;;;;19.39;54.81;100266.77;111222;1270;20736;-70
2023/01/31 07:11:49;;;;;;;;;1.00;1.00;;;;;19.39;54.83;100269.82;111336;1270;21196;-72
2023/01/31 07:14:17;;;;;;;;;1.00;1.00;;;;;19.41;54.99;100272.26;111198;1270;18760;-71
2023/01/31 07:16:44;;;;;;;;;1.00;1.00;;;;;19.42;54.77;100279.25;111278;1270;20716;-71
2023/01/31 07:19:12;;;;;;;;;1.00;1.00;;;;;19.42;55.08;100276.70;111179;1270;18383;-70
2023/01/31 07:21:39;;;;;;;;;1.00;1.00;;;;;19.41;55.13;100280.66;111415;1255;19896;-71
2023/01/31 07:24:07;;;;;;;;;1.00;1.00;;;;;19.41;55.27;100279.73;111150;1270;19555;-70
2023/01/31 07:26:34;;;;;;;;;1.00;1.00;;;;;19.42;55.31;100275.03;111395;1255;18204;-77
2023/01/31 07:29:02;;;;;;;;;1.00;1.00;;;;;19.45;55.39;100279.64;111101;1255;20267;-71
2023/01/31 07:31:29;;;;;;;;;1.00;1.00;;;;;19.48;55.57;100289.06;111347;1270;19393;-70
2023/01/31 07:33:57;;;;;;;;;1.00;1.00;;;;;19.49;55.54;100293.27;111117;1270;19522;-71
2023/01/31 07:36:25;;;;;;;;;1.00;1.00;;;;;19.49;55.62;100292.92;111382;1270;18812;-70
2023/01/31 07:38:52;;;;;;;;;1.00;1.00;;;;;19.48;55.93;100301.66;111433;1270;21744;-69
2023/01/31 07:41:20;;;;;;;;;1.00;1.00;;;;;19.47;55.88;100302.36;111224;1256;21038;-70
2023/01/31 07:43:47;;;;;;;;;1.00;1.00;;;;;19.46;55.71;100309.23;111112;1270;218888;-71
2023/01/31 07:46:15;;;;;;;;;1.00;1.00;;;;;19.46;55.85;100310.70;111220;1270;19406;-70
2023/01/31 07:48:42;;;;;;;;;1.00;1.00;;;;;19.43;55.75;100310.67;111432;1270;18228;-71
2023/01/31 07:51:10;;;;;;;;;1.00;1.00;;;;;19.42;55.80;100312.71;111213;1270;21297;-69
2023/01/31 07:53:40;;;;;;;;;1.00;1.00;;;;;19.46;55.98;100313.17;111374;1270;20582;-71
2023/01/31 07:56:08;;;;;;;;;1.00;1.00;;;;;19.48;55.95;100317.09;111583;1270;18752;-72
2023/01/31 07:58:36;;;;;;;;;1.00;1.00;;;;;19.48;56.04;100313.87;111249;1256;20341;-72
2023/01/31 08:03:48;;;;;;;;;1.00;1.00;;;;;19.45;55.89;100322.14;111434;1270;18744;-71
2023/01/31 08:06:16;;;;;;;;;1.00;1.00;;;;;19.46;55.95;100321.53;111252;1270;18938;-72
2023/01/31 08:08:43;;;;;;;;;1.00;1.00;;;;;19.47;55.95;100321.26;111472;1270;19417;-71
2023/01/31 08:11:11;;;;;;;;;1.00;1.00;;;;;19.51;55.66;100327.31;111270;1257;20079;-71
2023/01/31 08:13:38;;;;;;;;;1.00;1.00;;;;;19.53;55.73;100328.19;111479;1270;20095;-71
2023/01/31 08:16:06;;;;;;;;;1.00;1.00;;;;;19.57;55.63;100335.09;111284;1270;20915;-72
2023/01/31 08:18:33;;;;;;;;;1.00;1.00;;;;;19.62;55.35;100336.79;111493;1270;19785;-71
2023/01/31 08:21:01;;;;;;;;;1.00;1.00;;;;;19.62;55.46;100338.35;111321;1270;19139;-71
2023/01/31 08:23:28;;;;;;;;;1.00;1.00;;;;;19.62;55.34;100336.30;111513;1270;19723;-71
2023/01/31 08:25:56;;;;;;;;;1.00;1.00;;;;;19.63;55.14;100346.43;111382;1270;18550;-70
2023/01/31 08:28:23;;;;;;;;;1.00;1.00;;;;;19.65;55.27;100344.96;111503;1270;18966;-72
2023/01/31 08:30:51;;;;;;;;;3.00;2.00;;;;;19.70;55.27;100349.25;111292;1256;19573;-71
2023/01/31 08:33:18;;;;;;;;;3.00;3.00;;;;;19.73;54.85;100344.30;111530;1270;18227;-70
2023/01/31 08:35:46;;;;;;;;;4.00;4.00;;;;;19.75;54.76;100346.80;111324;1270;18830;-72
2023/01/31 08:38:13;;;;;;;;;6.00;6.00;;;;;19.79;54.55;100350.86;111481;1270;20915;-72
2023/01/31 08:40:41;;;;;;;;;5.00;4.00;;;;;19.81;54.62;100350.23;111279;1263;20201;-71
2023/01/31 08:43:08;;;;;;;;;6.00;6.00;;;;;19.83;54.37;100357.87;111507;1270;20001;-71
2023/01/31 08:45:35;;;;;;;;;10.00;9.00;;;;;19.85;54.25;100355.60;111322;1255;20717;-73
2023/01/31 08:48:03;;;;;;;;;10.00;7.00;;;;;19.87;54.17;100356.69;111568;1270;18832;-72
2023/01/31 08:50:30;;;;;;;;;6.00;6.00;;;;;19.90;54.04;100362.48;111276;1263;20226;-72
2023/01/31 08:52:58;;;;;;;;;7.00;7.00;;;;;19.91;53.94;100364.81;111576;1270;19380;-72
2023/01/31 08:55:25;;;;;;;;;13.00;7.00;;;;;19.92;54.13;100369.64;111276;1270;19561;-72
2023/01/31 08:57:53;;;;;;;;;8.00;8.00;;;;;19.91;53.95;100364.91;111553;1270;19964;-72
2023/01/31 09:00:20;;;;;;;;;9.00;7.00;;;;;19.92;53.84;100364.95;111222;1270;19738;-71
2023/01/31 09:02:49;;;;;;;;;8.00;8.00;;;;;19.92;53.79;100370.86;111601;1270;19949;-71
2023/01/31 09:05:17;;;;;;;;;7.00;7.00;;;;;19.93;53.82;100372.05;111208;1270;18631;-71
2023/01/31 09:07:44;;;;;;;;;7.67;7.67;;;;;19.95;53.94;100375.46;111455;1255;19601;-70
2023/01/31 09:10:11;;;;;;;;;6.00;6.00;;;;;19.96;54.05;100378.54;111191;1270;18193;-71
2023/01/31 09:12:39;;;;;;;;;6.00;4.00;;;;;19.95;53.90;100381.54;111413;1255;18693;-71
2023/01/31 09:15:06;;;;;;;;;6.00;6.00;;;;;19.95;53.86;100385.46;111278;1270;20969;-72
2023/01/31 09:17:34;;;;;;;;;6.00;6.00;;;;;19.94;53.71;100388.85;111384;1256;19590;-71
2023/01/31 09:20:05;;;;;;;;;9.00;6.50;;;;;19.93;53.88;100396.52;111203;1270;18851;-71
2023/01/31 09:22:33;;;;;;;;;7.00;6.00;;;;;19.95;53.83;100394.73;111417;1255;19351;-71
2023/01/31 09:25:00;;;;;;;;;9.00;7.00;;;;;19.93;53.71;100395.14;111280;1270;18323;-71
2023/01/31 09:27:28;;;;;;;;;7.67;7.00;;;;;19.89;53.96;100396.63;111533;1270;19941;-71
2023/01/31 09:29:55;;;;;;;;;6.00;6.00;;;;;19.87;54.00;100404.48;111271;1270;21078;-70
2023/01/31 09:32:23;;;;;;;;;6.00;6.00;;;;;19.89;54.01;100413.02;111613;1270;19793;-72
2023/01/31 09:34:50;;;;;;;;;7.00;6.00;;;;;19.90;54.00;100407.96;111253;1270;18908;-69
2023/01/31 09:37:18;;;;;;;;;4.00;4.00;;;;;19.89;53.98;100408.42;111589;1270;19764;-76
2023/01/31 09:39:45;;;;;;;;;7.00;7.00;;;;;19.87;53.75;100411.36;111268;1270;18178;-74
2023/01/31 09:42:13;;;;;;;;;6.00;6.00;;;;;19.83;53.35;100417.19;111488;1270;19259;-75
2023/01/31 09:44:40;;;;;;;;;9.00;6.00;;;;;19.71;53.06;100415.86;111235;1270;19589;-75
2023/01/31 09:47:08;;;;;;;;;4.67;4.67;;;;;19.64;52.25;100415.14;111573;1263;19558;-76
2023/01/31 09:49:36;;;;;;;;;4.00;4.00;;;;;19.57;50.88;100413.02;111297;1262;20346;-74
2023/01/31 09:52:03;;;;;;;;;6.00;4.67;;;;;19.53;49.29;100410.14;111515;1270;19328;-79
2023/01/31 09:54:31;;;;;;;;;6.50;3.50;;;;;19.48;48.24;100407.88;111280;1263;18238;-71
2023/01/31 09:56:59;;;;;;;;;4.00;4.00;;;;;19.44;47.24;100409.55;111526;1270;19021;-71
2023/01/31 09:59:27;;;;;;;;;;;;;;;19.45;47.57;100409.45;111199;1270;19538;-72
2023/01/31 10:01:54;;;;;;;;;6.00;6.00;;;;;19.49;47.74;100406.54;111452;1257;19643;-73
2023/01/31 10:04:22;;;;;;;;;6.00;4.00;;;;;19.51;48.11;100400.13;111112;1256;21401;-71
2023/01/31 10:06:49;;;;;;;;;7.00;4.67;;;;;19.52;48.57;100408.44;111371;1270;20731;-73
2023/01/31 10:09:17;;;;;;;;;3.00;3.00;;;;;19.53;48.57;100407.42;111135;1270;18148;-72
2023/01/31 10:11:44;;;;;;;;;4.00;4.00;;;;;19.53;48.84;100400.16;111423;1263;18631;-72
2023/01/31 10:14:12;;;;;;;;;5.00;4.00;;;;;19.53;49.08;100408.77;111179;1263;19331;-72
2023/01/31 10:16:39;;;;;;;;;6.00;6.00;;;;;19.53;49.31;100406.14;111372;1262;18767;-72
2023/01/31 10:19:06;;;;;;;;;3.00;3.00;;;;;19.54;49.52;100413.64;111129;1270;21707;-72
2023/01/31 10:21:34;;;;;;;;;4.00;3.00;;;;;19.54;49.63;100417.45;111392;1255;21842;-73
2023/01/31 10:24:01;;;;;;;;;4.00;4.00;;;;;19.53;49.92;100415.75;111232;1256;19539;-72
2023/01/31 10:26:29;;;;;;;;;3.00;3.00;;;;;19.53;50.01;100420.60;111445;1270;19273;-73
2023/01/31 10:28:56;;;;;;;;;3.00;3.00;;;;;19.53;50.12;100418.77;111184;1270;20901;-72
2023/01/31 10:31:24;;;;;;;;;4.00;4.00;;;;;19.54;50.49;100419.25;111480;1255;18829;-72
2023/01/31 10:33:51;;;;;;;;;6.00;6.00;;;;;19.54;50.52;100420.84;111197;1270;20068;-72
2023/01/31 10:36:19;;;;;;;;;3.00;3.00;;;;;19.54;50.48;100421.71;111463;1256;19412;-72
2023/01/31 10:38:46;;;;;;;;;3.00;3.00;;;;;19.53;50.90;100422.91;111250;1263;18238;-73
2023/01/31 10:41:14;;;;;;;;;3.00;3.00;;;;;19.54;50.70;100421.79;111484;1270;20048;-72
2023/01/31 10:43:41;;;;;;;;;4.00;3.00;;;;;19.54;50.86;100421.75;111223;1255;19753;-72
2023/01/31 10:46:09;;;;;;;;;3.50;3.00;;;;;19.53;50.87;100417.85;111449;1270;18581;-72
2023/01/31 10:48:36;;;;;;;;;4.00;3.00;;;;;19.54;51.08;100415.23;111271;1270;18862;-72
2023/01/31 10:51:03;;;;;;;;;4.00;4.00;;;;;19.53;51.22;100406.10;111515;1263;19332;-72
2023/01/31 10:53:31;;;;;;;;;3.00;3.00;;;;;19.54;51.09;100399.70;111281;1255;19729;-72
2023/01/31 10:55:58;;;;;;;;;3.50;3.50;;;;;19.54;51.24;100395.41;111489;1270;18976;-72
2023/01/31 10:58:26;;;;;;;;;1.00;1.00;;;;;19.54;51.44;100389.38;111268;1255;20713;-73
2023/01/31 11:00:53;;;;;;;;;4.00;4.00;;;;;19.52;51.19;100390.30;111502;1270;18183;-71
2023/01/31 11:03:21;;;;;;;;;4.00;3.00;;;;;19.51;51.51;100390.20;111292;1256;18689;-72
2023/01/31 11:05:49;;;;;;;;;3.00;3.00;;;;;19.56;51.57;100398.27;111454;1270;20708;-72
2023/01/31 11:08:16;;;;;;;;;3.00;3.00;;;;;19.60;51.45;100388.45;111215;1270;19557;-70
2023/01/31 11:10:44;;;;;;;;;3.00;3.00;;;;;19.61;51.54;100394.08;111459;1270;19449;-71
2023/01/31 11:13:11;;;;;;;;;3.00;3.00;;;;;19.61;51.81;100388.34;111379;1263;20895;-72
2023/01/31 11:15:39;;;;;;;;;3.00;3.00;;;;;19.63;52.41;100387.18;111424;1270;19553;-73
2023/01/31 11:18:07;;;;;;;;;3.00;3.00;;;;;19.68;53.18;100388.55;111380;1270;20324;-71
2023/01/31 11:20:34;;;;;;;;;4.00;3.00;;;;;19.68;53.64;100384.20;111419;1270;19444;-72
2023/01/31 11:23:01;;;;;;;;;3.50;3.50;;;;;19.69;53.73;100382.12;111352;1270;20962;-72
2023/01/31 11:25:29;;;;;;;;;1.00;1.00;;;;;19.69;54.14;100381.06;111447;1270;18776;-73